Time,TemperatureF,DewpointF,PressureIn,WindDirection,WindDirectionDegrees,WindSpeedMPH,WindSpeedGustMPH,Humidity,HourlyPrecipIn,Conditions,Clouds,dailyrainin,SolarRadiationWatts/m^2,SoftwareType,DateUTC
2013-05-30 00:01:00,65.0,48.0,-100.00,SW,214,11.0,23.0,55,0.00,,,0.00,0.000000,,2013-05-30 07:01:00,
2013-05-30 00:11:00,65.0,48.0,-100.00,SW,214,11.0,23.0,55,0.00,,,0.00,0.000000,,2013-05-30 07:11:00,
2013-05-30 00:32:00,65.0,47.0,-100.00,SSW,211,14.0,25.0,53,0.00,,,0.00,0.000000,,2013-05-30 07:32:00,
2013-05-30 00:42:00,65.0,47.0,-100.00,SSW,211,14.0,25.0,53,0.00,,,0.00,0.000000,,2013-05-30 07:42:00,
2013-05-30 00:52:00,65.0,47.0,-100.00,SSW,211,14.0,25.0,53,0.00,,,0.00,0.000000,,2013-05-30 07:52:00,
2013-05-30 01:01:00,65.0,47.0,-100.00,SSW,211,14.0,25.0,53,0.00,,,0.00,0.000000,,2013-05-30 08:01:00,
2013-05-30 01:11:00,65.0,47.0,-100.00,SSW,211,14.0,25.0,53,0.00,,,0.00,0.000000,,2013-05-30 08:11:00,
2013-05-30 01:32:00,65.0,48.0,-100.00,SW,223,10.0,22.0,54,0.00,,,0.00,0.000000,,2013-05-30 08:32:00,
2013-05-30 01:42:00,65.0,48.0,-100.00,SW,223,10.0,22.0,54,0.00,,,0.00,0.000000,,2013-05-30 08:42:00,
2013-05-30 01:53:00,65.0,48.0,-100.00,SW,223,10.0,22.0,54,0.00,,,0.00,0.000000,,2013-05-30 08:53:00,
2013-05-30 02:01:00,65.0,48.0,-100.00,SW,223,10.0,22.0,54,0.00,,,0.00,0.000000,,2013-05-30 09:01:00,
2013-05-30 02:11:00,65.0,48.0,-100.00,SW,223,10.0,22.0,54,0.00,,,0.00,0.000000,,2013-05-30 09:11:00,
2013-05-30 02:33:00,65.0,46.0,-100.00,SW,224,11.0,24.0,50,0.00,,,0.00,0.000000,,2013-05-30 09:33:00,
2013-05-30 02:43:00,65.0,46.0,-100.00,SW,224,11.0,24.0,50,0.00,,,0.00,0.000000,,2013-05-30 09:43:00,
2013-05-30 02:53:00,65.0,46.0,-100.00,SW,224,11.0,24.0,50,0.00,,,0.00,0.000000,,2013-05-30 09:53:00,
2013-05-30 03:02:00,65.0,46.0,-100.00,SW,224,11.0,24.0,50,0.00,,,0.00,0.000000,,2013-05-30 10:02:00,
2013-05-30 03:12:00,65.0,46.0,-100.00,SW,224,11.0,24.0,50,0.00,,,0.00,0.000000,,2013-05-30 10:12:00,
2013-05-30 03:33:00,65.0,45.0,-100.00,SSW,212,12.0,25.0,49,0.00,,,0.00,0.000000,,2013-05-30 10:33:00,
2013-05-30 03:42:00,65.0,45.0,-100.00,SSW,212,12.0,25.0,49,0.00,,,0.00,0.000000,,2013-05-30 10:42:00,
2013-05-30 03:52:00,65.0,45.0,-100.00,SSW,212,12.0,25.0,49,0.00,,,0.00,0.000000,,2013-05-30 10:52:00,
2013-05-30 04:03:00,65.0,45.0,-100.00,SSW,212,12.0,25.0,49,0.00,,,0.00,0.000000,,2013-05-30 11:03:00,
2013-05-30 04:12:00,65.0,45.0,-100.00,SSW,212,12.0,25.0,49,0.00,,,0.00,0.000000,,2013-05-30 11:12:00,
2013-05-30 04:32:00,64.0,44.0,-100.00,SSW,196,6.0,18.0,48,0.00,,,0.00,0.000000,,2013-05-30 11:32:00,
2013-05-30 04:42:00,64.0,44.0,-100.00,SSW,196,6.0,18.0,48,0.00,,,0.00,0.000000,,2013-05-30 11:42:00,
2013-05-30 04:52:00,64.0,44.0,-100.00,SSW,196,6.0,18.0,48,0.00,,,0.00,0.000000,,2013-05-30 11:52:00,
2013-05-30 05:01:00,64.0,44.0,-100.00,SSW,196,6.0,18.0,48,0.00,,,0.00,0.000000,,2013-05-30 12:01:00,
2013-05-30 05:11:00,64.0,44.0,-100.00,SSW,196,6.0,18.0,48,0.00,,,0.00,0.000000,,2013-05-30 12:11:00,
2013-05-30 05:42:00,62.0,42.0,-100.00,South,177,4.0,16.0,48,0.00,,,0.00,0.000000,,2013-05-30 12:42:00,
2013-05-30 05:52:00,62.0,42.0,-100.00,South,177,4.0,16.0,48,0.00,,,0.00,0.000000,,2013-05-30 12:52:00,
2013-05-30 06:01:00,62.0,42.0,-100.00,South,177,4.0,16.0,48,0.00,,,0.00,0.000000,,2013-05-30 13:01:00,
2013-05-30 06:11:00,62.0,42.0,-100.00,South,177,4.0,16.0,48,0.00,,,0.00,0.000000,,2013-05-30 13:11:00,
2013-05-30 06:32:00,61.0,43.0,-100.00,South,173,2.0,8.0,51,0.00,,,0.00,7.000000,,2013-05-30 13:32:00,
2013-05-30 06:42:00,61.0,43.0,-100.00,South,173,2.0,8.0,51,0.00,,,0.00,7.000000,,2013-05-30 13:42:00,
2013-05-30 06:52:00,61.0,43.0,-100.00,South,173,2.0,8.0,51,0.00,,,0.00,7.000000,,2013-05-30 13:52:00,
2013-05-30 07:01:00,61.0,43.0,-100.00,South,173,2.0,8.0,51,0.00,,,0.00,7.000000,,2013-05-30 14:01:00,
2013-05-30 07:11:00,61.0,43.0,-100.00,South,173,2.0,8.0,51,0.00,,,0.00,7.000000,,2013-05-30 14:11:00,
2013-05-30 07:32:00,63.0,44.0,-100.00,ESE,114,1.0,7.0,50,0.00,,,0.00,156.000000,,2013-05-30 14:32:00,
2013-05-30 07:42:00,63.0,44.0,-100.00,ESE,114,1.0,7.0,50,0.00,,,0.00,156.000000,,2013-05-30 14:42:00,
2013-05-30 07:52:00,63.0,44.0,-100.00,ESE,114,1.0,7.0,50,0.00,,,0.00,156.000000,,2013-05-30 14:52:00,
2013-05-30 08:01:00,63.0,44.0,-100.00,ESE,114,1.0,7.0,50,0.00,,,0.00,156.000000,,2013-05-30 15:01:00,
2013-05-30 08:11:00,63.0,44.0,-100.00,ESE,114,1.0,7.0,50,0.00,,,0.00,156.000000,,2013-05-30 15:11:00,
2013-05-30 08:33:00,69.0,46.0,-100.00,NNE,33,1.0,5.0,43,0.00,,,0.00,397.000000,,2013-05-30 15:33:00,
2013-05-30 08:52:00,69.0,46.0,-100.00,NNE,33,1.0,5.0,43,0.00,,,0.00,397.000000,,2013-05-30 15:52:00,
2013-05-30 09:03:00,69.0,46.0,-100.00,NNE,33,1.0,5.0,43,0.00,,,0.00,397.000000,,2013-05-30 16:03:00,
2013-05-30 09:33:00,73.0,47.0,-100.00,NW,307,5.0,10.0,39,0.00,,,-99.99,580.000000,,2013-05-30 16:33:00,
2013-05-30 09:42:00,73.0,47.0,-100.00,NW,307,5.0,10.0,39,0.00,,,-99.99,580.000000,,2013-05-30 16:42:00,
2013-05-30 09:53:00,73.0,47.0,-100.00,NW,307,5.0,10.0,39,0.00,,,-99.99,580.000000,,2013-05-30 16:53:00,
2013-05-30 10:02:00,73.0,47.0,-100.00,NW,307,5.0,10.0,39,0.00,,,-99.99,580.000000,,2013-05-30 17:02:00,
2013-05-30 10:11:00,73.0,47.0,-100.00,NW,307,5.0,10.0,39,0.00,,,-99.99,580.000000,,2013-05-30 17:11:00,
2013-05-30 10:32:00,75.0,42.0,-100.00,NE,43,2.0,13.0,31,0.00,,,0.00,776.000000,,2013-05-30 17:32:00,
2013-05-30 10:42:00,75.0,42.0,-100.00,NE,43,2.0,13.0,31,0.00,,,0.00,776.000000,,2013-05-30 17:42:00,
2013-05-30 10:52:00,75.0,42.0,-100.00,NE,43,2.0,13.0,31,0.00,,,0.00,776.000000,,2013-05-30 17:52:00,
2013-05-30 11:02:00,75.0,42.0,-100.00,NE,43,2.0,13.0,31,0.00,,,0.00,776.000000,,2013-05-30 18:02:00,
2013-05-30 11:11:00,75.0,42.0,-100.00,NE,43,2.0,13.0,31,0.00,,,0.00,776.000000,,2013-05-30 18:11:00,
2013-05-30 11:32:00,77.0,44.0,-100.00,WSW,258,9.0,18.0,31,0.00,,,0.00,894.000000,,2013-05-30 18:32:00,
2013-05-30 11:43:00,77.0,44.0,-100.00,WSW,258,9.0,18.0,31,0.00,,,0.00,894.000000,,2013-05-30 18:43:00,
2013-05-30 11:52:00,77.0,44.0,-100.00,WSW,258,9.0,18.0,31,0.00,,,0.00,894.000000,,2013-05-30 18:52:00,
2013-05-30 12:01:00,77.0,44.0,-100.00,WSW,258,9.0,18.0,31,0.00,,,0.00,894.000000,,2013-05-30 19:01:00,
2013-05-30 12:11:00,77.0,44.0,-100.00,WSW,258,9.0,18.0,31,0.00,,,0.00,894.000000,,2013-05-30 19:11:00,
2013-05-30 12:32:00,78.0,43.0,-100.00,WSW,244,14.0,26.0,29,0.00,,,0.00,984.000000,,2013-05-30 19:32:00,
2013-05-30 12:42:00,78.0,43.0,-100.00,WSW,244,14.0,26.0,29,0.00,,,0.00,984.000000,,2013-05-30 19:42:00,
2013-05-30 12:52:00,78.0,43.0,-100.00,WSW,244,14.0,26.0,29,0.00,,,0.00,984.000000,,2013-05-30 19:52:00,
2013-05-30 13:01:00,78.0,43.0,-100.00,WSW,244,14.0,26.0,29,0.00,,,0.00,984.000000,,2013-05-30 20:01:00,
2013-05-30 13:11:00,78.0,43.0,-100.00,WSW,244,14.0,26.0,29,0.00,,,0.00,984.000000,,2013-05-30 20:11:00,
2013-05-30 13:33:00,78.0,38.0,-100.00,SW,234,16.0,31.0,24,0.00,,,0.00,1012.000000,,2013-05-30 20:33:00,
2013-05-30 13:42:00,78.0,38.0,-100.00,SW,234,16.0,31.0,24,0.00,,,0.00,1012.000000,,2013-05-30 20:42:00,
2013-05-30 13:52:00,78.0,38.0,-100.00,SW,234,16.0,31.0,24,0.00,,,0.00,1012.000000,,2013-05-30 20:52:00,
2013-05-30 14:01:00,78.0,38.0,-100.00,SW,234,16.0,31.0,24,0.00,,,0.00,1012.000000,,2013-05-30 21:01:00,
2013-05-30 14:11:00,78.0,38.0,-100.00,SW,234,16.0,31.0,24,0.00,,,0.00,1012.000000,,2013-05-30 21:11:00,
2013-05-30 14:33:00,78.0,40.0,-100.00,SW,219,17.0,34.0,26,0.00,,,0.00,996.000000,,2013-05-30 21:33:00,
2013-05-30 14:43:00,78.0,40.0,-100.00,SW,219,17.0,34.0,26,0.00,,,0.00,996.000000,,2013-05-30 21:43:00,
2013-05-30 14:53:00,78.0,40.0,-100.00,SW,219,17.0,34.0,26,0.00,,,0.00,996.000000,,2013-05-30 21:53:00,
2013-05-30 15:02:00,78.0,40.0,-100.00,SW,219,17.0,34.0,26,0.00,,,0.00,996.000000,,2013-05-30 22:02:00,
2013-05-30 15:12:00,78.0,40.0,-100.00,SW,219,17.0,34.0,26,0.00,,,0.00,996.000000,,2013-05-30 22:12:00,
2013-05-30 15:33:00,79.0,40.0,-100.00,WSW,241,20.0,34.0,25,0.00,,,0.00,924.000000,,2013-05-30 22:33:00,
2013-05-30 15:42:00,79.0,40.0,-100.00,WSW,241,20.0,34.0,25,0.00,,,0.00,924.000000,,2013-05-30 22:42:00,
2013-05-30 15:52:00,79.0,40.0,-100.00,WSW,241,20.0,34.0,25,0.00,,,0.00,924.000000,,2013-05-30 22:52:00,
2013-05-30 16:02:00,79.0,40.0,-100.00,WSW,241,20.0,34.0,25,0.00,,,0.00,924.000000,,2013-05-30 23:02:00,
2013-05-30 16:11:00,79.0,40.0,-100.00,WSW,241,20.0,34.0,25,0.00,,,0.00,924.000000,,2013-05-30 23:11:00,
2013-05-30 16:32:00,79.0,40.0,-100.00,SW,215,20.0,36.0,25,0.00,,,0.00,779.000000,,2013-05-30 23:32:00,
2013-05-30 16:42:00,79.0,40.0,-100.00,SW,215,20.0,36.0,25,0.00,,,0.00,779.000000,,2013-05-30 23:42:00,
2013-05-30 16:52:00,79.0,40.0,-100.00,SW,215,20.0,36.0,25,0.00,,,0.00,779.000000,,2013-05-30 23:52:00,
2013-05-30 17:01:00,79.0,40.0,-100.00,SW,215,20.0,36.0,25,0.00,,,0.00,779.000000,,2013-05-31 00:01:00,
2013-05-30 17:11:00,79.0,40.0,-100.00,SW,215,20.0,36.0,25,0.00,,,0.00,779.000000,,2013-05-31 00:11:00,
2013-05-30 17:32:00,78.0,40.0,-100.00,SSW,209,16.0,32.0,26,0.00,,,-99.99,595.000000,,2013-05-31 00:32:00,
2013-05-30 17:42:00,78.0,40.0,-100.00,SSW,209,16.0,32.0,26,0.00,,,-99.99,595.000000,,2013-05-31 00:42:00,
2013-05-30 17:52:00,78.0,40.0,-100.00,SSW,209,16.0,32.0,26,0.00,,,-99.99,595.000000,,2013-05-31 00:52:00,
2013-05-30 18:01:00,78.0,40.0,-100.00,SSW,209,16.0,32.0,26,0.00,,,-99.99,595.000000,,2013-05-31 01:01:00,
2013-05-30 18:12:00,78.0,40.0,-100.00,SSW,209,16.0,32.0,26,0.00,,,-99.99,595.000000,,2013-05-31 01:12:00,
2013-05-30 18:32:00,76.0,41.0,-100.00,South,186,22.0,41.0,29,0.00,,,0.00,398.000000,,2013-05-31 01:32:00,
2013-05-30 18:42:00,76.0,41.0,-100.00,South,186,22.0,41.0,29,0.00,,,0.00,398.000000,,2013-05-31 01:42:00,
2013-05-30 18:52:00,76.0,41.0,-100.00,South,186,22.0,41.0,29,0.00,,,0.00,398.000000,,2013-05-31 01:52:00,
2013-05-30 19:02:00,76.0,41.0,-100.00,South,186,22.0,41.0,29,0.00,,,0.00,398.000000,,2013-05-31 02:02:00,
2013-05-30 19:11:00,76.0,41.0,-100.00,South,186,22.0,41.0,29,0.00,,,0.00,398.000000,,2013-05-31 02:11:00,
2013-05-30 19:32:00,72.0,42.0,-100.00,SSW,202,13.0,34.0,34,0.00,,,0.00,166.000000,,2013-05-31 02:32:00,
2013-05-30 19:42:00,72.0,42.0,-100.00,SSW,202,13.0,34.0,34,0.00,,,0.00,166.000000,,2013-05-31 02:42:00,
2013-05-30 19:52:00,72.0,42.0,-100.00,SSW,202,13.0,34.0,34,0.00,,,0.00,166.000000,,2013-05-31 02:52:00,
2013-05-30 20:01:00,72.0,42.0,-100.00,SSW,202,13.0,34.0,34,0.00,,,0.00,166.000000,,2013-05-31 03:01:00,
2013-05-30 20:11:00,72.0,42.0,-100.00,SSW,202,13.0,34.0,34,0.00,,,0.00,166.000000,,2013-05-31 03:11:00,
2013-05-30 20:33:00,70.0,46.0,-100.00,SSW,193,12.0,26.0,42,0.00,,,0.00,12.000000,,2013-05-31 03:33:00,
2013-05-30 20:43:00,70.0,46.0,-100.00,SSW,193,12.0,26.0,42,0.00,,,0.00,12.000000,,2013-05-31 03:43:00,
2013-05-30 20:53:00,70.0,46.0,-100.00,SSW,193,12.0,26.0,42,0.00,,,0.00,12.000000,,2013-05-31 03:53:00,
2013-05-30 21:02:00,70.0,46.0,-100.00,SSW,193,12.0,26.0,42,0.00,,,0.00,12.000000,,2013-05-31 04:02:00,
2013-05-30 21:12:00,70.0,46.0,-100.00,SSW,193,12.0,26.0,42,0.00,,,0.00,12.000000,,2013-05-31 04:12:00,
2013-05-30 21:33:00,69.0,47.0,-100.00,SSW,208,11.0,23.0,45,0.00,,,0.00,0.000000,,2013-05-31 04:33:00,
2013-05-30 21:42:00,69.0,47.0,-100.00,SSW,208,11.0,23.0,45,0.00,,,0.00,0.000000,,2013-05-31 04:42:00,
2013-05-30 21:53:00,69.0,47.0,-100.00,SSW,208,11.0,23.0,45,0.00,,,0.00,0.000000,,2013-05-31 04:53:00,
2013-05-30 22:02:00,69.0,47.0,-100.00,SSW,208,11.0,23.0,45,0.00,,,0.00,0.000000,,2013-05-31 05:02:00,
2013-05-30 22:12:00,69.0,47.0,-100.00,SSW,208,11.0,23.0,45,0.00,,,0.00,0.000000,,2013-05-31 05:12:00,
2013-05-30 22:32:00,69.0,47.0,-100.00,SW,216,16.0,26.0,46,0.00,,,0.00,0.000000,,2013-05-31 05:32:00,
2013-05-30 22:42:00,69.0,47.0,-100.00,SW,216,16.0,26.0,46,0.00,,,0.00,0.000000,,2013-05-31 05:42:00,
2013-05-30 22:52:00,69.0,47.0,-100.00,SW,216,16.0,26.0,46,0.00,,,0.00,0.000000,,2013-05-31 05:52:00,
2013-05-30 23:01:00,69.0,47.0,-100.00,SW,216,16.0,26.0,46,0.00,,,0.00,0.000000,,2013-05-31 06:01:00,
2013-05-30 23:11:00,69.0,47.0,-100.00,SW,216,16.0,26.0,46,0.00,,,0.00,0.000000,,2013-05-31 06:11:00,
2013-05-30 23:32:00,69.0,46.0,-100.00,SW,222,11.0,25.0,44,0.00,,,0.00,0.000000,,2013-05-31 06:32:00,
2013-05-30 23:42:00,69.0,46.0,-100.00,SW,222,11.0,25.0,44,0.00,,,0.00,0.000000,,2013-05-31 06:42:00,
2013-05-30 23:52:00,69.0,46.0,-100.00,SW,222,11.0,25.0,44,0.00,,,0.00,0.000000,,2013-05-31 06:52:00,